sensor_id;sensor_type;location;lat;lon;timestamp;pressure;altitude;pressure_sealevel;temperature;humidity
50484;BME280;36409;52.168;20.878;2022-07-22T00:00:09;100541.13;;;18.72;61.67
50484;BME280;36409;52.168;20.878;2022-07-22T00:02:57;100543.81;;;18.71;61.56
50484;BME280;36409;52.168;20.878;2022-07-22T00:05:26;100544.74;;;18.70;61.90
50484;BME280;36409;52.168;20.878;2022-07-22T00:07:55;100550.11;;;18.68;61.76
50484;BME280;36409;52.168;20.878;2022-07-22T00:10:24;100547.55;;;18.66;62.00
50484;BME280;36409;52.168;20.878;2022-07-22T00:12:52;100552.17;;;18.61;61.79
50484;BME280;36409;52.168;20.878;2022-07-22T00:15:21;100550.61;;;18.57;62.16
50484;BME280;36409;52.168;20.878;2022-07-22T00:17:49;100550.61;;;18.57;62.23
50484;BME280;36409;52.168;20.878;2022-07-22T00:20:18;100550.61;;;18.57;62.26
50484;BME280;36409;52.168;20.878;2022-07-22T00:22:47;100548.09;;;18.54;62.04
50484;BME280;36409;52.168;20.878;2022-07-22T00:25:16;100548.30;;;18.49;62.23
50484;BME280;36409;52.168;20.878;2022-07-22T00:27:44;100546.58;;;18.48;62.55
50484;BME280;36409;52.168;20.878;2022-07-22T00:30:13;100551.92;;;18.47;62.71
50484;BME280;36409;52.168;20.878;2022-07-22T00:32:42;100552.80;;;18.47;62.75
50484;BME280;36409;52.168;20.878;2022-07-22T00:35:10;100547.59;;;18.46;62.67
50484;BME280;36409;52.168;20.878;2022-07-22T00:37:39;100546.63;;;18.47;62.65
50484;BME280;36409;52.168;20.878;2022-07-22T00:40:10;100540.58;;;18.45;62.74
50484;BME280;36409;52.168;20.878;2022-07-22T00:42:40;100541.51;;;18.44;62.88
50484;BME280;36409;52.168;20.878;2022-07-22T00:45:09;100542.43;;;18.43;62.80
50484;BME280;36409;52.168;20.878;2022-07-22T00:47:39;100536.14;;;18.45;63.09
50484;BME280;36409;52.168;20.878;2022-07-22T00:50:09;100536.06;;;18.47;62.90
50484;BME280;36409;52.168;20.878;2022-07-22T00:52:38;100542.14;;;18.49;63.08
50484;BME280;36409;52.168;20.878;2022-07-22T00:55:08;100533.38;;;18.48;63.28
50484;BME280;36409;52.168;20.878;2022-07-22T00:57:37;100532.49;;;18.48;62.78
50484;BME280;36409;52.168;20.878;2022-07-22T01:00:09;100529.22;;;18.43;63.05
50484;BME280;36409;52.168;20.878;2022-07-22T01:02:38;100531.06;;;18.41;62.82
50484;BME280;36409;52.168;20.878;2022-07-22T01:05:08;100527.63;;;18.39;63.11
50484;BME280;36409;52.168;20.878;2022-07-22T01:07:38;100530.39;;;18.35;63.01
50484;BME280;36409;52.168;20.878;2022-07-22T01:10:08;100523.47;;;18.33;62.73
50484;BME280;36409;52.168;20.878;2022-07-22T01:12:37;100519.19;;;18.30;62.97
50484;BME280;36409;52.168;20.878;2022-07-22T01:15:08;100518.52;;;18.25;62.83
50484;BME280;36409;52.168;20.878;2022-07-22T01:17:37;100526.60;;;18.22;63.03
50484;BME280;36409;52.168;20.878;2022-07-22T01:20:07;100523.16;;;18.20;62.94
50484;BME280;36409;52.168;20.878;2022-07-22T01:22:37;100530.16;;;18.21;63.20
50484;BME280;36409;52.168;20.878;2022-07-22T01:25:07;100520.52;;;18.20;62.86
50484;BME280;36409;52.168;20.878;2022-07-22T01:27:36;100515.36;;;18.17;63.38
50484;BME280;36409;52.168;20.878;2022-07-22T01:30:07;100519.05;;;18.13;63.56
50484;BME280;36409;52.168;20.878;2022-07-22T01:32:36;100516.61;;;18.08;63.14
50484;BME280;36409;52.168;20.878;2022-07-22T01:35:07;100512.25;;;18.07;63.14
50484;BME280;36409;52.168;20.878;2022-07-22T01:37:35;100513.20;;;18.06;63.50
50484;BME280;36409;52.168;20.878;2022-07-22T01:40:06;100510.69;;;18.03;63.39
50484;BME280;36409;52.168;20.878;2022-07-22T01:42:35;100511.73;;;17.99;63.34
50484;BME280;36409;52.168;20.878;2022-07-22T01:45:05;100518.91;;;17.95;63.25
50484;BME280;36409;52.168;20.878;2022-07-22T01:47:34;100519.83;;;17.94;63.57
50484;BME280;36409;52.168;20.878;2022-07-22T01:50:05;100521.81;;;17.89;63.48
50484;BME280;36409;52.168;20.878;2022-07-22T01:52:35;100523.05;;;17.80;63.77
50484;BME280;36409;52.168;20.878;2022-07-22T01:55:06;100522.33;;;17.77;63.46
50484;BME280;36409;52.168;20.878;2022-07-22T01:57:36;100529.52;;;17.73;64.04
50484;BME280;36409;52.168;20.878;2022-07-22T02:00:17;100540.20;;;17.70;63.83
50484;BME280;36409;52.168;20.878;2022-07-22T02:02:46;100534.12;;;17.68;63.79
50484;BME280;36409;52.168;20.878;2022-07-22T02:05:17;100533.39;;;17.64;63.95
50484;BME280;36409;52.168;20.878;2022-07-22T02:07:46;100531.75;;;17.62;64.26
50484;BME280;36409;52.168;20.878;2022-07-22T02:10:19;100534.43;;;17.60;63.88
50484;BME280;36409;52.168;20.878;2022-07-22T02:12:48;100522.16;;;17.59;64.25
50484;BME280;36409;52.168;20.878;2022-07-22T02:15:17;100534.55;;;17.57;64.17
50484;BME280;36409;52.168;20.878;2022-07-22T02:17:47;100546.97;;;17.55;64.16
50484;BME280;36409;52.168;20.878;2022-07-22T02:20:15;100560.28;;;17.52;64.68
50484;BME280;36409;52.168;20.878;2022-07-22T02:22:44;100573.58;;;17.49;64.87
50484;BME280;36409;52.168;20.878;2022-07-22T02:25:14;100556.91;;;17.48;64.59
50484;BME280;36409;52.168;20.878;2022-07-22T02:27:43;100563.03;;;17.49;64.82
50484;BME280;36409;52.168;20.878;2022-07-22T02:30:12;100559.55;;;17.48;64.79
50484;BME280;36409;52.168;20.878;2022-07-22T02:32:41;100547.31;;;17.45;64.67
50484;BME280;36409;52.168;20.878;2022-07-22T02:35:10;100537.64;;;17.46;64.64
50484;BME280;36409;52.168;20.878;2022-07-22T02:37:38;100549.18;;;17.43;64.64
50484;BME280;36409;52.168;20.878;2022-07-22T02:40:08;100562.56;;;17.39;65.04
50484;BME280;36409;52.168;20.878;2022-07-22T02:42:38;100555.67;;;17.35;64.85
50484;BME280;36409;52.168;20.878;2022-07-22T02:45:09;100540.88;;;17.31;64.96
50484;BME280;36409;52.168;20.878;2022-07-22T02:47:46;100554.06;;;17.31;65.22
50484;BME280;36409;52.168;20.878;2022-07-22T02:50:16;100549.95;;;17.23;64.73
50484;BME280;36409;52.168;20.878;2022-07-22T02:52:44;100544.76;;;17.22;65.77
50484;BME280;36409;52.168;20.878;2022-07-22T02:55:13;100548.23;;;17.22;65.18
50484;BME280;36409;52.168;20.878;2022-07-22T02:57:42;100553.52;;;17.22;65.61
50484;BME280;36409;52.168;20.878;2022-07-22T03:00:12;100551.91;;;17.18;65.25
50484;BME280;36409;52.168;20.878;2022-07-22T03:02:41;100549.34;;;17.17;65.59
50484;BME280;36409;52.168;20.878;2022-07-22T03:05:10;100545.78;;;17.18;65.57
50484;BME280;36409;52.168;20.878;2022-07-22T03:07:44;100542.27;;;17.17;65.96
50484;BME280;36409;52.168;20.878;2022-07-22T03:10:13;100536.04;;;17.20;65.47
50484;BME280;36409;52.168;20.878;2022-07-22T03:12:42;100539.59;;;17.19;65.84
50484;BME280;36409;52.168;20.878;2022-07-22T03:15:11;100532.59;;;17.18;65.48
50484;BME280;36409;52.168;20.878;2022-07-22T03:17:39;100533.44;;;17.18;65.50
50484;BME280;36409;52.168;20.878;2022-07-22T03:20:11;100540.51;;;17.18;65.83
50484;BME280;36409;52.168;20.878;2022-07-22T03:22:40;100534.43;;;17.16;66.10
50484;BME280;36409;52.168;20.878;2022-07-22T03:25:09;100531.72;;;17.17;66.16
50484;BME280;36409;52.168;20.878;2022-07-22T03:27:38;100536.08;;;17.18;65.98
50484;BME280;36409;52.168;20.878;2022-07-22T03:30:09;100529.05;;;17.19;66.45
50484;BME280;36409;52.168;20.878;2022-07-22T03:32:40;100527.21;;;17.21;66.00
50484;BME280;36409;52.168;20.878;2022-07-22T03:35:12;100524.31;;;17.27;66.20
50484;BME280;36409;52.168;20.878;2022-07-22T03:37:43;100532.84;;;17.34;66.30
50484;BME280;36409;52.168;20.878;2022-07-22T03:40:13;100538.81;;;17.39;66.25
50484;BME280;36409;52.168;20.878;2022-07-22T03:42:42;100538.63;;;17.43;66.69
50484;BME280;36409;52.168;20.878;2022-07-22T03:45:14;100545.48;;;17.48;66.77
50484;BME280;36409;52.168;20.878;2022-07-22T03:47:43;100547.08;;;17.52;66.33
50484;BME280;36409;52.168;20.878;2022-07-22T03:50:12;100548.69;;;17.56;66.24
50484;BME280;36409;52.168;20.878;2022-07-22T03:52:41;100550.38;;;17.57;66.15
50484;BME280;36409;52.168;20.878;2022-07-22T03:55:11;100549.42;;;17.59;66.33
50484;BME280;36409;52.168;20.878;2022-07-22T03:57:39;100551.91;;;17.63;66.59
50484;BME280;36409;52.168;20.878;2022-07-22T04:00:14;100557.07;;;17.66;66.78
50484;BME280;36409;52.168;20.878;2022-07-22T04:02:44;100559.52;;;17.70;66.36
50484;BME280;36409;52.168;20.878;2022-07-22T04:05:19;100552.28;;;17.75;66.58
50484;BME280;36409;52.168;20.878;2022-07-22T04:07:49;100552.02;;;17.82;66.50
50484;BME280;36409;52.168;20.878;2022-07-22T04:10:18;100550.06;;;17.87;66.99
50484;BME280;36409;52.168;20.878;2022-07-22T04:12:46;100556.06;;;17.90;66.75
50484;BME280;36409;52.168;20.878;2022-07-22T04:15:19;100547.86;;;17.98;66.91
50484;BME280;36409;52.168;20.878;2022-07-22T04:17:47;100546.58;;;18.07;66.66
50484;BME280;36409;52.168;20.878;2022-07-22T04:20:16;100551.55;;;18.15;67.19
50484;BME280;36409;52.168;20.878;2022-07-22T04:23:04;100553.94;;;18.21;66.82
50484;BME280;36409;52.168;20.878;2022-07-22T04:25:33;100546.61;;;18.28;66.71
50484;BME280;36409;52.168;20.878;2022-07-22T04:28:04;100541.92;;;18.34;67.11
50484;BME280;36409;52.168;20.878;2022-07-22T04:30:33;100539.70;;;18.44;66.99
50484;BME280;36409;52.168;20.878;2022-07-22T04:33:02;100541.80;;;18.57;67.11
50484;BME280;36409;52.168;20.878;2022-07-22T04:35:32;100538.61;;;18.69;67.06
50484;BME280;36409;52.168;20.878;2022-07-22T04:38:20;100541.63;;;18.80;66.94
50484;BME280;36409;52.168;20.878;2022-07-22T04:40:59;100538.50;;;18.91;66.96
50484;BME280;36409;52.168;20.878;2022-07-22T04:43:28;100543.30;;;19.02;67.01
50484;BME280;36409;52.168;20.878;2022-07-22T04:45:57;100533.08;;;19.13;67.23
50484;BME280;36409;52.168;20.878;2022-07-22T04:48:29;100533.28;;;19.28;67.06
50484;BME280;36409;52.168;20.878;2022-07-22T04:50:59;100533.62;;;19.39;67.23
50484;BME280;36409;52.168;20.878;2022-07-22T04:53:31;100539.25;;;19.51;66.81
50484;BME280;36409;52.168;20.878;2022-07-22T04:56:16;100529.55;;;19.69;66.83
50484;BME280;36409;52.168;20.878;2022-07-22T04:58:47;100527.91;;;19.84;66.82
50484;BME280;36409;52.168;20.878;2022-07-22T05:01:17;100532.44;;;19.99;67.08
50484;BME280;36409;52.168;20.878;2022-07-22T05:03:51;100532.50;;;20.15;67.02
50484;BME280;36409;52.168;20.878;2022-07-22T05:06:20;100518.31;;;20.34;66.61
50484;BME280;36409;52.168;20.878;2022-07-22T05:08:50;100534.17;;;20.51;66.48
50484;BME280;36409;52.168;20.878;2022-07-22T05:11:18;100526.95;;;20.71;66.30
50484;BME280;36409;52.168;20.878;2022-07-22T05:13:47;100524.09;;;20.92;65.94
50484;BME280;36409;52.168;20.878;2022-07-22T05:16:17;100522.13;;;21.11;65.76
50484;BME280;36409;52.168;20.878;2022-07-22T05:18:46;100531.79;;;21.28;65.51
50484;BME280;36409;52.168;20.878;2022-07-22T05:21:16;100521.05;;;21.46;65.79
50484;BME280;36409;52.168;20.878;2022-07-22T05:23:45;100521.81;;;21.64;64.74
50484;BME280;36409;52.168;20.878;2022-07-22T05:26:15;100519.12;;;21.80;64.88
50484;BME280;36409;52.168;20.878;2022-07-22T05:28:44;100518.32;;;21.94;64.27
50484;BME280;36409;52.168;20.878;2022-07-22T05:31:12;100524.69;;;22.06;64.37
50484;BME280;36409;52.168;20.878;2022-07-22T05:33:41;100534.30;;;22.23;63.86
50484;BME280;36409;52.168;20.878;2022-07-22T05:36:26;100521.80;;;22.40;64.03
50484;BME280;36409;52.168;20.878;2022-07-22T05:38:56;100522.47;;;22.58;63.37
50484;BME280;36409;52.168;20.878;2022-07-22T05:41:25;100523.99;;;22.76;63.06
50484;BME280;36409;52.168;20.878;2022-07-22T05:43:54;100515.02;;;22.92;62.56
50484;BME280;36409;52.168;20.878;2022-07-22T05:46:23;100518.72;;;23.04;62.67
50484;BME280;36409;52.168;20.878;2022-07-22T05:48:52;100519.52;;;23.19;62.62
50484;BME280;36409;52.168;20.878;2022-07-22T05:51:22;100521.87;;;23.38;62.25
50484;BME280;36409;52.168;20.878;2022-07-22T05:53:51;100518.55;;;23.62;62.31
50484;BME280;36409;52.168;20.878;2022-07-22T05:56:20;100520.09;;;23.91;61.61
50484;BME280;36409;52.168;20.878;2022-07-22T05:58:49;100517.16;;;24.48;60.78
50484;BME280;36409;52.168;20.878;2022-07-22T06:01:20;100513.25;;;24.91;60.43
50484;BME280;36409;52.168;20.878;2022-07-22T06:03:48;100520.65;;;25.11;60.30
50484;BME280;36409;52.168;20.878;2022-07-22T06:06:18;100519.72;;;25.37;59.46
50484;BME280;36409;52.168;20.878;2022-07-22T06:08:47;100519.55;;;25.51;59.22
50484;BME280;36409;52.168;20.878;2022-07-22T06:11:21;100523.39;;;25.71;58.96
50484;BME280;36409;52.168;20.878;2022-07-22T06:13:51;100521.88;;;25.92;58.40
50484;BME280;36409;52.168;20.878;2022-07-22T06:16:21;100522.06;;;26.13;57.98
50484;BME280;36409;52.168;20.878;2022-07-22T06:18:52;100520.73;;;26.75;56.86
50484;BME280;36409;52.168;20.878;2022-07-22T06:21:21;100515.47;;;27.19;56.27
50484;BME280;36409;52.168;20.878;2022-07-22T06:23:50;100522.20;;;28.00;55.32
50484;BME280;36409;52.168;20.878;2022-07-22T06:26:19;100523.10;;;28.62;54.16
50484;BME280;36409;52.168;20.878;2022-07-22T06:28:48;100525.73;;;28.53;53.96
50484;BME280;36409;52.168;20.878;2022-07-22T06:31:18;100529.70;;;28.48;53.30
50484;BME280;36409;52.168;20.878;2022-07-22T06:33:47;100532.55;;;28.26;52.75
50484;BME280;36409;52.168;20.878;2022-07-22T06:36:16;100534.73;;;27.99;53.39
50484;BME280;36409;52.168;20.878;2022-07-22T06:38:45;100537.16;;;27.81;53.26
50484;BME280;36409;52.168;20.878;2022-07-22T06:41:20;100538.72;;;27.63;52.98
50484;BME280;36409;52.168;20.878;2022-07-22T06:44:05;100537.06;;;27.39;52.90
50484;BME280;36409;52.168;20.878;2022-07-22T06:46:53;100536.51;;;27.24;52.77
50484;BME280;36409;52.168;20.878;2022-07-22T06:49:22;100543.47;;;27.15;53.28
50484;BME280;36409;52.168;20.878;2022-07-22T06:51:53;100540.19;;;27.11;52.67
50484;BME280;36409;52.168;20.878;2022-07-22T06:54:22;100546.41;;;27.12;53.15
50484;BME280;36409;52.168;20.878;2022-07-22T06:56:52;100538.38;;;27.12;53.25
50484;BME280;36409;52.168;20.878;2022-07-22T06:59:25;100540.78;;;27.15;52.82
50484;BME280;36409;52.168;20.878;2022-07-22T07:01:54;100534.45;;;27.16;52.67
50484;BME280;36409;52.168;20.878;2022-07-22T07:04:25;100529.83;;;27.18;52.33
50484;BME280;36409;52.168;20.878;2022-07-22T07:06:56;100532.37;;;27.20;52.00
50484;BME280;36409;52.168;20.878;2022-07-22T07:09:34;100527.50;;;27.25;52.08
50484;BME280;36409;52.168;20.878;2022-07-22T07:12:23;100526.34;;;27.39;51.84
50484;BME280;36409;52.168;20.878;2022-07-22T07:15:19;100532.09;;;27.46;51.57
50484;BME280;36409;52.168;20.878;2022-07-22T07:17:56;100528.05;;;27.51;51.16
50484;BME280;36409;52.168;20.878;2022-07-22T07:20:25;100530.81;;;27.61;50.85
50484;BME280;36409;52.168;20.878;2022-07-22T07:22:54;100532.52;;;27.83;50.71
50484;BME280;36409;52.168;20.878;2022-07-22T07:25:25;100530.24;;;28.00;50.58
50484;BME280;36409;52.168;20.878;2022-07-22T07:27:55;100523.90;;;28.01;50.43
50484;BME280;36409;52.168;20.878;2022-07-22T07:30:51;100529.13;;;28.02;50.16
50484;BME280;36409;52.168;20.878;2022-07-22T07:33:22;100530.68;;;28.05;49.99
50484;BME280;36409;52.168;20.878;2022-07-22T07:35:50;100533.14;;;28.08;49.69
50484;BME280;36409;52.168;20.878;2022-07-22T07:38:24;100528.36;;;28.12;49.47
50484;BME280;36409;52.168;20.878;2022-07-22T07:40:53;100524.30;;;28.17;49.46
50484;BME280;36409;52.168;20.878;2022-07-22T07:43:23;100521.93;;;28.24;49.23
50484;BME280;36409;52.168;20.878;2022-07-22T07:45:51;100522.51;;;28.28;49.20
50484;BME280;36409;52.168;20.878;2022-07-22T07:48:20;100526.38;;;28.35;49.03
50484;BME280;36409;52.168;20.878;2022-07-22T07:50:49;100519.16;;;28.35;48.92
50484;BME280;36409;52.168;20.878;2022-07-22T07:53:18;100519.16;;;28.35;48.91
50484;BME280;36409;52.168;20.878;2022-07-22T07:55:48;100522.31;;;28.41;48.92
50484;BME280;36409;52.168;20.878;2022-07-22T07:58:18;100521.03;;;28.45;48.81
50484;BME280;36409;52.168;20.878;2022-07-22T08:00:50;100527.12;;;28.47;48.76
50484;BME280;36409;52.168;20.878;2022-07-22T08:03:19;100524.03;;;28.51;48.84
50484;BME280;36409;52.168;20.878;2022-07-22T08:05:48;100522.22;;;28.52;48.70
50484;BME280;36409;52.168;20.878;2022-07-22T08:08:21;100517.42;;;28.56;48.17
50484;BME280;36409;52.168;20.878;2022-07-22T08:10:51;100515.31;;;28.59;48.62
50484;BME280;36409;52.168;20.878;2022-07-22T08:13:34;100515.05;;;28.62;49.07
50484;BME280;36409;52.168;20.878;2022-07-22T08:16:22;100522.69;;;28.67;48.80
50484;BME280;36409;52.168;20.878;2022-07-22T08:18:52;100519.48;;;28.73;48.66
50484;BME280;36409;52.168;20.878;2022-07-22T08:21:22;100521.63;;;28.79;48.76
50484;BME280;36409;52.168;20.878;2022-07-22T08:23:56;100521.94;;;28.86;48.59
50484;BME280;36409;52.168;20.878;2022-07-22T08:26:26;100525.45;;;28.87;48.44
50484;BME280;36409;52.168;20.878;2022-07-22T08:29:01;100521.11;;;28.95;48.53
50484;BME280;36409;52.168;20.878;2022-07-22T08:31:33;100523.94;;;29.04;48.17
50484;BME280;36409;52.168;20.878;2022-07-22T08:34:07;100520.72;;;29.10;48.16
50484;BME280;36409;52.168;20.878;2022-07-22T08:36:36;100516.62;;;29.25;48.30
50484;BME280;36409;52.168;20.878;2022-07-22T08:39:04;100516.34;;;29.28;47.97
50484;BME280;36409;52.168;20.878;2022-07-22T08:41:36;100518.77;;;29.41;47.80
50484;BME280;36409;52.168;20.878;2022-07-22T08:44:08;100517.77;;;29.62;47.67
50484;BME280;36409;52.168;20.878;2022-07-22T08:46:37;100511.81;;;29.78;47.14
50484;BME280;36409;52.168;20.878;2022-07-22T08:49:20;100509.83;;;29.90;47.00
50484;BME280;36409;52.168;20.878;2022-07-22T08:51:56;100504.58;;;30.08;46.97
50484;BME280;36409;52.168;20.878;2022-07-22T08:54:27;100512.11;;;30.42;46.93
50484;BME280;36409;52.168;20.878;2022-07-22T08:56:59;100502.27;;;30.89;46.98
50484;BME280;36409;52.168;20.878;2022-07-22T08:59:28;100502.17;;;31.26;46.07
50484;BME280;36409;52.168;20.878;2022-07-22T09:02:06;100501.37;;;31.70;45.72
50484;BME280;36409;52.168;20.878;2022-07-22T09:04:56;100509.59;;;32.13;45.63
50484;BME280;36409;52.168;20.878;2022-07-22T09:07:27;100502.09;;;32.60;45.23
50484;BME280;36409;52.168;20.878;2022-07-22T09:09:59;100508.14;;;32.96;44.80
50484;BME280;36409;52.168;20.878;2022-07-22T09:12:55;100506.48;;;33.12;43.75
50484;BME280;36409;52.168;20.878;2022-07-22T09:15:48;100511.09;;;33.45;43.80
50484;BME280;36409;52.168;20.878;2022-07-22T09:18:50;100522.26;;;33.58;43.55
50484;BME280;36409;52.168;20.878;2022-07-22T09:21:45;100516.17;;;33.48;43.18
50484;BME280;36409;52.168;20.878;2022-07-22T09:24:28;100521.75;;;33.79;43.27
50484;BME280;36409;52.168;20.878;2022-07-22T09:27:06;100514.80;;;34.01;42.75
50484;BME280;36409;52.168;20.878;2022-07-22T09:29:51;100515.91;;;34.32;42.96
50484;BME280;36409;52.168;20.878;2022-07-22T09:32:23;100519.39;;;34.57;42.47
50484;BME280;36409;52.168;20.878;2022-07-22T09:35:02;100517.77;;;34.79;42.07
50484;BME280;36409;52.168;20.878;2022-07-22T09:38:00;100513.26;;;35.26;42.02
50484;BME280;36409;52.168;20.878;2022-07-22T09:40:30;100519.78;;;35.40;40.86
50484;BME280;36409;52.168;20.878;2022-07-22T09:43:02;100521.71;;;35.32;40.78
50484;BME280;36409;52.168;20.878;2022-07-22T09:45:33;100510.73;;;35.25;40.53
50484;BME280;36409;52.168;20.878;2022-07-22T09:48:04;100500.44;;;35.20;40.61
50484;BME280;36409;52.168;20.878;2022-07-22T09:50:49;100495.12;;;35.04;40.55
50484;BME280;36409;52.168;20.878;2022-07-22T09:53:33;100501.94;;;35.23;40.63
50484;BME280;36409;52.168;20.878;2022-07-22T09:56:11;100498.20;;;35.47;40.69
50484;BME280;36409;52.168;20.878;2022-07-22T09:58:42;100493.87;;;35.61;40.09
50484;BME280;36409;52.168;20.878;2022-07-22T10:01:39;100491.54;;;35.73;39.83
50484;BME280;36409;52.168;20.878;2022-07-22T10:04:10;100500.12;;;36.00;39.63
50484;BME280;36409;52.168;20.878;2022-07-22T10:06:42;100497.98;;;36.10;39.34
50484;BME280;36409;52.168;20.878;2022-07-22T10:09:17;100496.09;;;36.41;39.23
50484;BME280;36409;52.168;20.878;2022-07-22T10:11:48;100507.30;;;36.68;38.98
50484;BME280;36409;52.168;20.878;2022-07-22T10:14:20;100503.72;;;36.82;38.40
50484;BME280;36409;52.168;20.878;2022-07-22T10:16:54;100496.72;;;36.73;37.71
50484;BME280;36409;52.168;20.878;2022-07-22T10:19:24;100499.23;;;36.74;37.98
50484;BME280;36409;52.168;20.878;2022-07-22T10:21:52;100501.83;;;36.83;37.47
50484;BME280;36409;52.168;20.878;2022-07-22T10:24:21;100496.20;;;36.99;37.56
50484;BME280;36409;52.168;20.878;2022-07-22T10:27:09;100493.75;;;37.04;36.70
50484;BME280;36409;52.168;20.878;2022-07-22T10:29:44;100493.34;;;37.07;36.91
50484;BME280;36409;52.168;20.878;2022-07-22T10:32:25;100492.17;;;37.17;36.81
50484;BME280;36409;52.168;20.878;2022-07-22T10:35:20;100494.05;;;37.38;37.05
50484;BME280;36409;52.168;20.878;2022-07-22T10:37:53;100486.15;;;37.65;36.37
50484;BME280;36409;52.168;20.878;2022-07-22T10:40:24;100495.40;;;37.70;36.00
50484;BME280;36409;52.168;20.878;2022-07-22T10:43:08;100486.69;;;37.82;35.75
50484;BME280;36409;52.168;20.878;2022-07-22T10:45:40;100491.83;;;37.98;35.66
50484;BME280;36409;52.168;20.878;2022-07-22T10:48:13;100494.03;;;38.16;35.76
50484;BME280;36409;52.168;20.878;2022-07-22T10:53:46;100482.31;;;38.16;34.67
50484;BME280;36409;52.168;20.878;2022-07-22T10:56:24;100483.92;;;38.39;34.95
50484;BME280;36409;52.168;20.878;2022-07-22T10:58:59;100478.95;;;38.56;34.48
50484;BME280;36409;52.168;20.878;2022-07-22T11:01:37;100482.29;;;38.58;34.30
50484;BME280;36409;52.168;20.878;2022-07-22T11:04:15;100478.52;;;38.59;34.20
50484;BME280;36409;52.168;20.878;2022-07-22T11:06:47;100483.05;;;38.87;34.23
50484;BME280;36409;52.168;20.878;2022-07-22T11:09:18;100485.37;;;38.90;33.80
50484;BME280;36409;52.168;20.878;2022-07-22T11:11:49;100484.92;;;38.86;33.76
50484;BME280;36409;52.168;20.878;2022-07-22T11:14:24;100483.88;;;38.87;33.30
50484;BME280;36409;52.168;20.878;2022-07-22T11:16:56;100481.06;;;38.60;32.86
50484;BME280;36409;52.168;20.878;2022-07-22T11:19:27;100479.30;;;38.39;32.77
50484;BME280;36409;52.168;20.878;2022-07-22T11:21:58;100483.12;;;38.52;33.30
50484;BME280;36409;52.168;20.878;2022-07-22T11:24:31;100482.08;;;38.53;33.00
50484;BME280;36409;52.168;20.878;2022-07-22T11:27:01;100473.92;;;38.59;33.03
50484;BME280;36409;52.168;20.878;2022-07-22T11:29:35;100475.17;;;38.63;32.97
50484;BME280;36409;52.168;20.878;2022-07-22T11:32:08;100475.98;;;38.51;33.19
50484;BME280;36409;52.168;20.878;2022-07-22T11:34:38;100474.91;;;38.45;32.94
50484;BME280;36409;52.168;20.878;2022-07-22T11:37:10;100477.12;;;38.28;32.63
50484;BME280;36409;52.168;20.878;2022-07-22T11:39:39;100473.02;;;38.04;32.71
50484;BME280;36409;52.168;20.878;2022-07-22T11:42:10;100471.29;;;37.67;32.65
50484;BME280;36409;52.168;20.878;2022-07-22T11:44:44;100480.09;;;37.19;33.11
50484;BME280;36409;52.168;20.878;2022-07-22T11:47:20;100476.53;;;36.82;33.26
50484;BME280;36409;52.168;20.878;2022-07-22T11:49:49;100469.48;;;36.88;33.25
50484;BME280;36409;52.168;20.878;2022-07-22T11:52:17;100470.17;;;37.12;33.62
50484;BME280;36409;52.168;20.878;2022-07-22T11:54:46;100466.94;;;37.45;33.63
50484;BME280;36409;52.168;20.878;2022-07-22T11:57:15;100474.95;;;37.53;33.70
50484;BME280;36409;52.168;20.878;2022-07-22T11:59:45;100474.18;;;37.37;33.44
50484;BME280;36409;52.168;20.878;2022-07-22T12:02:18;100470.41;;;36.95;33.30
50484;BME280;36409;52.168;20.878;2022-07-22T12:04:46;100469.38;;;36.59;33.54
50484;BME280;36409;52.168;20.878;2022-07-22T12:07:16;100472.47;;;36.41;34.07
50484;BME280;36409;52.168;20.878;2022-07-22T12:09:45;100462.47;;;36.42;34.00
50484;BME280;36409;52.168;20.878;2022-07-22T12:12:14;100465.13;;;36.72;33.83
50484;BME280;36409;52.168;20.878;2022-07-22T12:14:46;100465.84;;;36.96;33.80
50484;BME280;36409;52.168;20.878;2022-07-22T12:17:17;100466.42;;;37.13;33.97
50484;BME280;36409;52.168;20.878;2022-07-22T12:19:45;100464.27;;;37.30;33.74
50484;BME280;36409;52.168;20.878;2022-07-22T12:22:21;100463.56;;;37.43;33.46
50484;BME280;36409;52.168;20.878;2022-07-22T12:25:00;100461.00;;;37.63;33.28
50484;BME280;36409;52.168;20.878;2022-07-22T12:27:30;100456.98;;;37.59;32.65
50484;BME280;36409;52.168;20.878;2022-07-22T12:29:59;100457.91;;;37.44;32.64
50484;BME280;36409;52.168;20.878;2022-07-22T12:32:29;100459.81;;;37.44;32.83
50484;BME280;36409;52.168;20.878;2022-07-22T12:35:00;100447.03;;;37.44;32.70
50484;BME280;36409;52.168;20.878;2022-07-22T12:37:31;100442.78;;;37.63;32.53
50484;BME280;36409;52.168;20.878;2022-07-22T12:40:03;100447.67;;;37.75;32.93
50484;BME280;36409;52.168;20.878;2022-07-22T12:42:35;100438.47;;;37.76;32.75
50484;BME280;36409;52.168;20.878;2022-07-22T12:45:08;100442.98;;;37.90;32.75
50484;BME280;36409;52.168;20.878;2022-07-22T12:47:42;100441.81;;;38.06;32.61
50484;BME280;36409;52.168;20.878;2022-07-22T12:50:21;100440.78;;;38.07;32.24
50484;BME280;36409;52.168;20.878;2022-07-22T12:52:51;100437.94;;;37.87;32.49
50484;BME280;36409;52.168;20.878;2022-07-22T12:55:42;100439.57;;;37.53;32.17
50484;BME280;36409;52.168;20.878;2022-07-22T12:58:12;100438.55;;;37.32;32.48
50484;BME280;36409;52.168;20.878;2022-07-22T13:00:45;100439.28;;;37.41;32.22
50484;BME280;36409;52.168;20.878;2022-07-22T13:03:14;100432.72;;;37.35;32.17
50484;BME280;36409;52.168;20.878;2022-07-22T13:05:43;100425.47;;;37.43;32.39
50484;BME280;36409;52.168;20.878;2022-07-22T13:08:12;100423.34;;;37.66;32.57